KPMU/PMU METAR and TAF weather

Enter ICAO airport designator
Station Type Date Time Source
KPMU METAR 2023/01/29 18:15 UTC NOAA

KPMU 291815Z AUTO 00000KT 10SM BKN004 BKN013 14/14 A3006 RMK AO2


Station Type Date Time Source
KPMU Decoded METAR 2023/01/29 18:15 UTC NOAA

Station name not available
Jan 29, 2023 - 01:15 PM EST / 2023.01.29 1815 UTC
Wind: Calm:0
Visibility: 10 mile(s):0
Sky conditions: mostly cloudy
Temperature: 57 F (14 C)
Dew Point: 57 F (14 C)
Relative Humidity: 100%
Pressure (altimeter): 30.06 in. Hg (1017 hPa)
ob: KPMU 291815Z AUTO 00000KT 10SM BKN004 BKN013 14/14 A3006 RMK AO2
cycle: 18

Station Type Date Time Source
KPMU TAF UTC NOAA

Error!

Example: see airport list